Time;durP1;ratioP1;P1;durP2;ratioP2;P2;SDS_P1;SDS_P2;PMS_P1;PMS_P2;Temp;Humidity;BMP_temperature;BMP_pressure;BME280_temperature;BME280_humidity;BME280_pressure;Samples;Min_cycle;Max_cycle;Signal;HPM_P1;HPM_P2
2022/01/15 00:01:04;;;;;;;7.05;3.88;;;7.10;99.90;;;;;;5113184;28;20039;-72
2022/01/15 00:03:29;;;;;;;7.93;3.72;;;7.10;99.90;;;;;;5104549;28;20040;-72
2022/01/15 00:05:55;;;;;;;8.38;3.70;;;7.10;99.90;;;;;;5076116;28;20123;-72
2022/01/15 00:08:21;;;;;;;7.20;3.45;;;7.10;99.90;;;;;;5088634;28;20034;-72
2022/01/15 00:10:47;;;;;;;6.65;3.30;;;7.10;99.90;;;;;;5119532;27;20528;-72
2022/01/15 00:13:23;;;;;;;7.65;3.80;;;7.20;99.90;;;;;;5122189;27;20043;-72
2022/01/15 00:15:54;;;;;;;7.68;4.00;;;7.10;99.90;;;;;;5099292;27;20496;-72
2022/01/15 00:18:29;;;;;;;8.60;4.00;;;7.10;99.90;;;;;;5105103;28;20066;-72
2022/01/15 00:20:54;;;;;;;8.88;3.95;;;7.10;99.90;;;;;;5112903;28;20047;-71
2022/01/15 00:23:20;;;;;;;7.25;3.47;;;7.20;99.90;;;;;;5111800;28;20041;-71
2022/01/15 00:25:45;;;;;;;9.02;3.80;;;7.10;99.90;;;;;;5112255;28;20082;-71
2022/01/15 00:28:11;;;;;;;8.75;3.67;;;6.90;99.90;;;;;;5111282;28;20042;-71
2022/01/15 00:30:37;;;;;;;8.85;4.03;;;6.90;99.90;;;;;;5111613;28;20499;-72
2022/01/15 00:33:02;;;;;;;8.73;4.28;;;7.00;99.90;;;;;;5085376;28;20412;-72
2022/01/15 00:35:28;;;;;;;6.97;3.55;;;7.00;99.90;;;;;;5095968;28;20067;-72
2022/01/15 00:37:55;;;;;;;9.00;4.47;;;7.00;99.90;;;;;;5092075;28;20128;-71
2022/01/15 00:40:21;;;;;;;10.10;4.60;;;7.00;99.90;;;;;;5093961;28;20051;-71
2022/01/15 00:42:47;;;;;;;7.00;3.63;;;6.90;99.90;;;;;;5110101;28;20067;-72
2022/01/15 00:45:19;;;;;;;7.53;4.38;;;6.90;99.90;;;;;;5108959;28;20074;-71
2022/01/15 00:47:46;;;;;;;7.70;4.15;;;7.00;99.90;;;;;;5095510;28;20071;-71
2022/01/15 00:50:12;;;;;;;7.65;4.10;;;7.00;99.90;;;;;;5095078;28;20395;-72
2022/01/15 00:52:37;;;;;;;9.40;4.78;;;7.20;99.90;;;;;;5095715;28;20035;-72
2022/01/15 00:55:05;;;;;;;8.75;4.63;;;7.20;99.90;;;;;;5110831;28;20472;-72
2022/01/15 00:57:30;;;;;;;6.78;3.67;;;7.00;99.90;;;;;;5110658;28;20506;-71
2022/01/15 00:59:56;;;;;;;8.70;4.35;;;6.90;99.90;;;;;;5111714;28;20043;-71
2022/01/15 01:02:21;;;;;;;7.70;4.47;;;6.90;99.90;;;;;;5095459;28;20042;-72
2022/01/15 01:04:47;;;;;;;8.38;4.20;;;6.90;99.90;;;;;;5111322;28;20372;-72
2022/01/15 01:07:13;;;;;;;7.97;4.53;;;7.00;99.90;;;;;;5093085;28;20152;-71
2022/01/15 01:10:47;;;;;;;9.02;4.80;;;6.90;99.90;;;;;;5092472;28;20506;-72
2022/01/15 01:22:59;;;;;;;7.53;4.63;;;6.90;99.90;;;;;;5116769;28;20078;-72
2022/01/15 01:25:44;;;;;;;8.32;4.85;;;7.00;99.90;;;;;;5115259;28;20078;-71
2022/01/15 01:28:22;;;;;;;9.70;4.93;;;7.00;99.90;;;;;;5099303;28;20038;-72
2022/01/15 01:30:55;;;;;;;8.35;4.65;;;7.00;99.90;;;;;;5115485;28;20460;-72
2022/01/15 01:36:07;;;;;;;9.13;4.85;;;7.00;99.90;;;;;;5113512;28;20054;-72
2022/01/15 01:38:44;;;;;;;8.80;4.53;;;6.90;99.90;;;;;;5110816;27;20062;-72
2022/01/15 01:41:16;;;;;;;9.55;4.82;;;6.90;99.90;;;;;;5122851;27;20054;-72
2022/01/15 01:43:50;;;;;;;10.32;4.90;;;6.90;99.90;;;;;;5119418;27;20050;-72
2022/01/15 01:48:52;;;;;;;10.30;4.55;;;6.90;99.90;;;;;;5119425;27;20043;-72
2022/01/15 01:51:31;;;;;;;10.40;4.90;;;6.90;99.90;;;;;;5085453;28;20048;-72
2022/01/15 01:53:59;;;;;;;9.00;4.50;;;6.90;99.90;;;;;;5103973;27;20039;-72
2022/01/15 01:56:25;;;;;;;9.35;4.57;;;6.80;99.90;;;;;;5118045;27;20035;-71
2022/01/15 01:58:51;;;;;;;8.63;4.78;;;6.90;99.90;;;;;;5116448;27;20395;-72
2022/01/15 02:01:17;;;;;;;9.50;4.95;;;6.90;99.90;;;;;;5103894;27;20035;-72
2022/01/15 02:03:43;;;;;;;8.52;5.28;;;6.90;99.90;;;;;;5118036;27;20047;-72
2022/01/15 02:06:08;;;;;;;9.90;5.10;;;6.90;99.90;;;;;;5102266;27;20031;-72
2022/01/15 02:08:35;;;;;;;9.43;5.13;;;6.90;99.90;;;;;;5101085;27;20039;-72
2022/01/15 02:11:04;;;;;;;9.30;5.20;;;6.90;99.90;;;;;;5101866;27;20039;-72
2022/01/15 02:13:30;;;;;;;10.15;5.38;;;6.80;99.90;;;;;;5100833;27;20045;-71
2022/01/15 02:16:00;;;;;;;8.38;5.25;;;6.80;99.90;;;;;;5119124;27;20469;-72
2022/01/15 02:18:26;;;;;;;9.75;5.60;;;6.80;99.90;;;;;;5101075;27;20046;-72
2022/01/15 02:23:33;;;;;;;10.60;5.55;;;6.90;99.90;;;;;;5098794;28;20128;-72
2022/01/15 02:23:51;;;;;;;11.85;6.00;;;6.80;99.90;;;;;;5117806;27;20043;-72
2022/01/15 02:26:18;;;;;;;10.85;6.53;;;6.80;99.90;;;;;;5100582;27;20031;-72
2022/01/15 02:28:50;;;;;;;10.20;5.55;;;6.90;99.90;;;;;;5100459;27;20104;-72
2022/01/15 02:31:17;;;;;;;9.50;5.18;;;6.80;99.90;;;;;;5117376;27;20061;-71
2022/01/15 02:33:46;;;;;;;9.98;4.82;;;6.80;99.90;;;;;;5118386;27;20039;-71
2022/01/15 02:36:14;;;;;;;8.85;4.65;;;6.90;99.90;;;;;;5100798;27;20392;-72
2022/01/15 02:38:40;;;;;;;9.55;4.70;;;6.90;99.90;;;;;;5114479;28;20047;-72
2022/01/15 02:41:07;;;;;;;9.85;4.70;;;6.90;99.90;;;;;;5113038;28;20039;-72
2022/01/15 02:43:34;;;;;;;8.85;4.40;;;6.90;99.90;;;;;;5114931;28;20480;-72
2022/01/15 02:46:19;;;;;;;7.95;3.70;;;6.90;99.90;;;;;;5096269;28;20036;-72
2022/01/15 02:48:53;;;;;;;8.18;4.10;;;6.90;99.90;;;;;;5111558;28;20395;-72
2022/01/15 02:51:27;;;;;;;9.40;4.22;;;6.90;99.90;;;;;;5094354;28;20391;-72
2022/01/15 02:53:56;;;;;;;7.72;3.38;;;6.90;99.90;;;;;;5094575;28;20044;-72
2022/01/15 02:56:31;;;;;;;7.07;3.20;;;7.00;99.90;;;;;;5101896;28;20032;-72
2022/01/15 02:58:57;;;;;;;6.85;3.05;;;7.10;99.90;;;;;;5112217;28;20043;-72
2022/01/15 03:01:23;;;;;;;7.97;3.45;;;7.00;99.90;;;;;;5113159;28;20050;-72
2022/01/15 03:03:49;;;;;;;7.50;3.63;;;7.00;99.90;;;;;;5113718;28;20035;-71
2022/01/15 03:06:16;;;;;;;7.25;3.00;;;7.00;99.90;;;;;;5096306;28;20088;-72
2022/01/15 03:08:44;;;;;;;7.35;2.78;;;7.00;99.90;;;;;;5114553;28;20031;-72
2022/01/15 03:11:11;;;;;;;7.07;3.15;;;6.90;99.90;;;;;;5113444;28;20036;-72
2022/01/15 03:13:38;;;;;;;6.05;2.72;;;6.90;99.90;;;;;;5091291;28;20039;-72
2022/01/15 03:16:08;;;;;;;6.07;2.70;;;6.80;99.90;;;;;;5081823;28;20040;-72
2022/01/15 03:18:33;;;;;;;6.55;2.63;;;6.80;99.90;;;;;;5113876;28;20109;-72
2022/01/15 03:20:59;;;;;;;7.68;3.17;;;6.80;99.90;;;;;;5112972;28;20071;-72
2022/01/15 03:23:24;;;;;;;6.30;2.78;;;6.80;99.90;;;;;;5113334;28;20061;-72
2022/01/15 03:25:50;;;;;;;6.30;2.67;;;6.80;99.90;;;;;;5113438;28;20035;-71
2022/01/15 03:28:16;;;;;;;5.95;2.75;;;6.80;99.90;;;;;;5113151;28;20118;-72
2022/01/15 03:30:41;;;;;;;6.63;2.95;;;6.80;99.90;;;;;;5113774;28;20442;-72
2022/01/15 03:33:08;;;;;;;6.53;2.65;;;6.80;99.90;;;;;;5095941;28;20035;-72
2022/01/15 03:35:34;;;;;;;6.30;2.80;;;6.80;99.90;;;;;;5095977;28;20043;-72
2022/01/15 03:38:00;;;;;;;6.20;2.60;;;6.70;99.90;;;;;;5111626;28;20054;-72
2022/01/15 03:40:26;;;;;;;6.47;2.50;;;6.70;99.90;;;;;;5113647;28;20044;-72
2022/01/15 03:42:52;;;;;;;7.43;3.17;;;6.70;99.90;;;;;;5095747;28;20038;-72
2022/01/15 03:45:17;;;;;;;6.82;2.83;;;6.70;99.90;;;;;;5095780;28;20123;-72
2022/01/15 03:47:45;;;;;;;5.88;2.67;;;6.70;99.90;;;;;;5112477;28;20074;-71
2022/01/15 03:50:12;;;;;;;5.68;2.67;;;6.70;99.90;;;;;;5113697;28;20095;-72
2022/01/15 03:52:38;;;;;;;5.78;2.30;;;6.70;99.90;;;;;;5095661;28;20075;-72
2022/01/15 03:55:05;;;;;;;6.30;2.78;;;6.70;99.90;;;;;;5112413;28;20044;-72
2022/01/15 03:57:30;;;;;;;6.68;2.60;;;6.70;99.90;;;;;;5113425;28;20122;-71
2022/01/15 03:59:56;;;;;;;6.10;2.60;;;6.70;99.90;;;;;;5111819;28;20176;-72
2022/01/15 04:02:21;;;;;;;7.05;2.78;;;6.70;99.90;;;;;;5113318;28;20498;-72
2022/01/15 04:04:47;;;;;;;5.15;2.42;;;6.70;99.90;;;;;;5110491;28;20455;-72
2022/01/15 04:07:12;;;;;;;6.10;2.40;;;6.70;99.90;;;;;;5096571;28;20034;-71
2022/01/15 04:09:38;;;;;;;5.28;2.55;;;6.80;99.90;;;;;;5107734;28;20075;-71
2022/01/15 04:12:04;;;;;;;5.07;2.50;;;6.80;99.90;;;;;;5092235;28;20479;-71
2022/01/15 04:14:30;;;;;;;5.13;2.28;;;6.70;99.90;;;;;;5112027;28;20036;-72
2022/01/15 04:16:56;;;;;;;5.28;2.35;;;6.70;99.90;;;;;;5111141;28;20036;-71
2022/01/15 04:19:22;;;;;;;6.55;2.90;;;6.70;99.90;;;;;;5095338;28;20101;-71
2022/01/15 04:21:47;;;;;;;5.78;2.67;;;6.70;99.90;;;;;;5110073;28;20062;-72
2022/01/15 04:24:13;;;;;;;6.50;2.90;;;6.70;99.90;;;;;;5091945;28;20044;-72
2022/01/15 04:26:38;;;;;;;5.80;2.72;;;6.70;99.90;;;;;;5094117;28;20028;-71
2022/01/15 04:29:06;;;;;;;5.38;2.38;;;6.80;99.90;;;;;;5111765;28;20031;-71
2022/01/15 04:31:49;;;;;;;5.90;2.30;;;6.70;99.90;;;;;;5089885;28;20039;-71
2022/01/15 04:34:25;;;;;;;6.30;2.80;;;6.70;99.90;;;;;;5113124;28;20051;-71
2022/01/15 04:36:52;;;;;;;5.28;2.28;;;6.70;99.90;;;;;;5110352;28;20541;-71
2022/01/15 04:39:19;;;;;;;6.15;2.80;;;6.70;99.90;;;;;;5112499;28;20389;-71
2022/01/15 04:41:45;;;;;;;5.80;2.65;;;6.80;99.90;;;;;;5111288;28;20052;-71
2022/01/15 04:44:11;;;;;;;4.78;2.25;;;6.90;99.90;;;;;;5110831;28;20036;-71
2022/01/15 04:46:38;;;;;;;4.72;2.40;;;6.80;99.90;;;;;;5112455;28;20042;-71
2022/01/15 04:49:05;;;;;;;6.03;2.50;;;6.70;99.90;;;;;;5111566;28;20040;-71
2022/01/15 04:51:31;;;;;;;5.82;2.53;;;6.70;99.90;;;;;;5094331;28;20032;-71
2022/01/15 04:53:57;;;;;;;5.78;2.50;;;6.80;99.90;;;;;;5112487;28;20118;-72
2022/01/15 04:56:23;;;;;;;5.57;2.42;;;6.80;99.90;;;;;;5108395;28;20184;-72
2022/01/15 04:58:48;;;;;;;4.57;1.95;;;6.70;99.90;;;;;;5093110;28;20050;-71
2022/01/15 05:01:14;;;;;;;6.22;2.80;;;6.70;99.90;;;;;;5094688;28;20036;-71
2022/01/15 05:03:40;;;;;;;5.90;2.55;;;6.70;99.90;;;;;;5112476;28;20047;-71
2022/01/15 05:06:05;;;;;;;6.03;2.42;;;6.60;99.90;;;;;;5082333;28;20039;-72
2022/01/15 05:08:32;;;;;;;5.30;2.33;;;6.60;99.90;;;;;;5076076;28;20032;-72
2022/01/15 05:10:59;;;;;;;5.38;2.35;;;6.60;99.90;;;;;;5076400;28;20039;-72
2022/01/15 05:13:29;;;;;;;5.28;2.22;;;6.60;99.90;;;;;;5094842;28;20119;-72
2022/01/15 05:15:55;;;;;;;4.78;2.28;;;6.60;99.90;;;;;;5078460;28;20555;-71
2022/01/15 05:18:20;;;;;;;5.05;2.30;;;6.60;99.90;;;;;;5093266;28;20048;-72
2022/01/15 05:20:46;;;;;;;5.28;2.47;;;6.60;99.90;;;;;;5095179;28;20064;-71
2022/01/15 05:23:12;;;;;;;7.43;2.55;;;6.60;99.90;;;;;;5100596;28;20060;-71
2022/01/15 05:25:39;;;;;;;6.88;3.05;;;6.70;99.90;;;;;;5085092;28;20119;-72
2022/01/15 05:28:05;;;;;;;5.80;2.90;;;6.70;99.90;;;;;;5107522;28;20049;-72
2022/01/15 05:30:31;;;;;;;5.45;2.25;;;6.60;99.90;;;;;;5109804;28;20039;-72
2022/01/15 05:32:58;;;;;;;4.95;2.42;;;6.60;99.90;;;;;;5095306;28;20484;-72
2022/01/15 05:35:26;;;;;;;5.80;2.50;;;6.60;99.90;;;;;;5111216;28;20495;-72
2022/01/15 05:37:52;;;;;;;6.45;2.90;;;6.60;99.90;;;;;;5113753;28;20499;-72
2022/01/15 05:40:17;;;;;;;5.78;2.63;;;6.60;99.90;;;;;;5130326;28;20143;-72
2022/01/15 05:42:43;;;;;;;6.93;2.75;;;6.60;99.90;;;;;;5115460;28;20506;-72
2022/01/15 05:45:09;;;;;;;6.40;2.95;;;6.60;99.90;;;;;;5113211;28;20037;-72
2022/01/15 05:47:35;;;;;;;5.90;2.55;;;6.60;99.90;;;;;;5119610;28;20032;-72
2022/01/15 05:50:00;;;;;;;6.10;2.72;;;6.60;99.90;;;;;;5111919;28;20039;-72
2022/01/15 05:52:26;;;;;;;5.68;2.50;;;6.60;99.90;;;;;;5093658;28;20043;-72
2022/01/15 05:54:52;;;;;;;6.80;2.58;;;6.60;99.90;;;;;;5104260;28;20037;-72
2022/01/15 05:57:17;;;;;;;5.53;2.47;;;6.60;99.90;;;;;;5115390;27;20069;-72
2022/01/15 05:59:44;;;;;;;5.80;2.55;;;6.50;99.90;;;;;;5102844;28;20553;-72
2022/01/15 06:02:10;;;;;;;6.18;2.88;;;6.50;99.90;;;;;;5093014;28;20119;-72
2022/01/15 06:04:36;;;;;;;6.47;2.65;;;6.50;99.90;;;;;;5115506;27;20070;-72
2022/01/15 06:07:02;;;;;;;5.75;2.42;;;6.50;99.90;;;;;;5126700;27;20036;-72
2022/01/15 06:09:27;;;;;;;5.75;2.50;;;6.50;99.90;;;;;;5115965;27;20023;-72
2022/01/15 06:11:55;;;;;;;6.53;2.40;;;6.50;99.90;;;;;;5098669;28;20101;-72
2022/01/15 06:14:21;;;;;;;4.97;2.30;;;6.50;99.90;;;;;;5104028;27;20040;-72
2022/01/15 06:16:47;;;;;;;5.65;2.47;;;6.60;99.90;;;;;;5108493;28;20036;-72
2022/01/15 06:19:13;;;;;;;6.15;2.42;;;6.60;99.90;;;;;;5112490;28;20066;-72
2022/01/15 06:21:38;;;;;;;6.13;2.72;;;6.60;99.90;;;;;;5127080;27;20046;-72
2022/01/15 06:24:04;;;;;;;5.20;2.40;;;6.60;99.90;;;;;;5108766;28;20036;-72
2022/01/15 06:26:30;;;;;;;6.88;2.92;;;6.60;99.90;;;;;;5086967;28;20039;-72
2022/01/15 06:28:55;;;;;;;7.13;3.00;;;6.60;99.90;;;;;;5099140;28;20067;-72
2022/01/15 06:31:21;;;;;;;6.40;2.60;;;6.50;99.90;;;;;;5112966;28;20088;-71
2022/01/15 06:33:46;;;;;;;7.22;2.92;;;6.60;99.90;;;;;;5098077;28;20126;-71
2022/01/15 06:36:12;;;;;;;6.68;2.90;;;6.70;99.90;;;;;;5126808;27;20035;-71
2022/01/15 06:38:37;;;;;;;7.18;3.40;;;6.60;99.90;;;;;;5118147;27;20047;-72
2022/01/15 06:41:03;;;;;;;7.45;3.55;;;6.70;99.90;;;;;;5133566;27;20078;-72
2022/01/15 06:43:28;;;;;;;7.05;3.08;;;6.70;99.90;;;;;;5118383;27;20034;-72
2022/01/15 06:45:54;;;;;;;6.70;2.90;;;6.80;99.90;;;;;;5114101;27;20035;-72
2022/01/15 06:48:20;;;;;;;7.22;2.90;;;6.90;99.90;;;;;;5121780;27;20034;-72
2022/01/15 06:50:45;;;;;;;7.45;3.50;;;6.90;99.90;;;;;;5119687;27;20108;-71
2022/01/15 06:53:11;;;;;;;7.53;3.25;;;6.80;99.90;;;;;;5133325;27;20490;-71
2022/01/15 06:55:37;;;;;;;7.13;2.70;;;6.90;99.90;;;;;;5130066;27;20038;-71
2022/01/15 06:58:02;;;;;;;6.35;2.70;;;6.80;99.90;;;;;;5118076;27;20491;-71
2022/01/15 07:00:28;;;;;;;7.20;3.25;;;6.80;99.90;;;;;;5133393;27;20039;-71
2022/01/15 07:02:53;;;;;;;6.63;2.85;;;6.70;99.90;;;;;;5134930;27;20035;-72
2022/01/15 07:05:20;;;;;;;6.18;2.78;;;6.80;99.90;;;;;;5130027;27;20070;-71
2022/01/15 07:07:47;;;;;;;6.60;2.80;;;6.80;99.90;;;;;;5134281;27;20035;-72
2022/01/15 07:10:13;;;;;;;7.65;3.20;;;6.70;99.90;;;;;;5124146;27;20039;-72
2022/01/15 07:12:39;;;;;;;6.80;3.00;;;6.90;99.90;;;;;;5097444;28;20130;-71
2022/01/15 07:15:05;;;;;;;7.65;3.42;;;6.80;99.90;;;;;;5102071;28;20531;-72
2022/01/15 07:17:31;;;;;;;6.40;2.88;;;6.80;99.90;;;;;;5113138;27;20031;-72
2022/01/15 07:19:57;;;;;;;6.78;3.00;;;6.70;99.90;;;;;;5134954;27;20095;-71
2022/01/15 07:22:23;;;;;;;8.35;3.55;;;6.80;99.90;;;;;;5133171;27;20045;-71
2022/01/15 07:24:48;;;;;;;7.07;3.20;;;6.70;99.90;;;;;;5117555;27;20479;-72
2022/01/15 07:27:14;;;;;;;7.00;3.10;;;6.70;99.90;;;;;;5108985;28;20484;-71
2022/01/15 07:29:39;;;;;;;7.32;3.20;;;6.90;99.90;;;;;;5114215;28;20403;-72
2022/01/15 07:32:06;;;;;;;6.97;2.97;;;6.80;99.90;;;;;;5123087;27;20035;-72
2022/01/15 07:34:32;;;;;;;6.90;2.92;;;6.80;99.90;;;;;;5110027;28;20027;-71
2022/01/15 07:36:58;;;;;;;7.63;3.00;;;6.80;99.90;;;;;;5084724;28;20384;-71
2022/01/15 07:39:25;;;;;;;6.68;3.08;;;6.90;99.90;;;;;;5095395;28;20044;-71
2022/01/15 07:41:51;;;;;;;7.65;3.10;;;6.80;99.90;;;;;;5085687;28;20087;-71
2022/01/15 07:44:17;;;;;;;6.35;2.70;;;6.80;99.90;;;;;;5063210;28;20055;-72
2022/01/15 07:46:42;;;;;;;6.90;2.70;;;6.80;99.90;;;;;;5076399;28;20032;-72
2022/01/15 07:49:08;;;;;;;6.22;2.60;;;6.90;99.90;;;;;;5092195;28;20119;-72
2022/01/15 07:51:34;;;;;;;7.47;2.88;;;6.80;99.90;;;;;;5073763;28;20040;-72
2022/01/15 07:53:59;;;;;;;7.18;2.63;;;6.80;99.90;;;;;;5127396;27;20491;-72
2022/01/15 07:56:25;;;;;;;7.45;3.13;;;6.80;99.90;;;;;;5092238;28;20067;-72
2022/01/15 07:58:51;;;;;;;6.35;2.72;;;6.80;99.90;;;;;;5093279;28;20032;-72
2022/01/15 08:01:17;;;;;;;7.57;3.10;;;6.80;99.90;;;;;;5075048;28;20036;-72
2022/01/15 08:03:43;;;;;;;6.00;2.90;;;6.80;99.90;;;;;;5093091;28;20388;-71
2022/01/15 08:06:10;;;;;;;4.60;1.98;;;6.70;99.90;;;;;;5090412;28;20040;-71
2022/01/15 08:08:36;;;;;;;4.50;1.60;;;6.80;99.90;;;;;;5092930;28;20035;-71
2022/01/15 08:11:03;;;;;;;4.57;1.70;;;6.90;99.90;;;;;;5123455;27;20089;-72
2022/01/15 08:13:30;;;;;;;3.58;1.52;;;6.80;99.90;;;;;;5084320;28;20047;-71
2022/01/15 08:15:57;;;;;;;5.13;1.58;;;6.70;99.90;;;;;;5120936;27;20388;-71
2022/01/15 08:18:23;;;;;;;4.05;1.52;;;6.80;99.90;;;;;;5075817;28;20114;-71
2022/01/15 08:20:50;;;;;;;3.72;1.55;;;6.80;99.90;;;;;;5074710;28;20036;-71
2022/01/15 08:23:16;;;;;;;4.65;1.63;;;6.60;99.90;;;;;;5075668;28;20110;-72
2022/01/15 08:25:41;;;;;;;4.43;2.00;;;6.50;99.90;;;;;;5089166;28;20504;-71
2022/01/15 08:28:07;;;;;;;5.18;2.00;;;6.70;99.90;;;;;;5075691;28;20121;-71
2022/01/15 08:30:33;;;;;;;8.35;3.15;;;6.70;99.90;;;;;;5090290;28;20142;-71
2022/01/15 08:32:58;;;;;;;7.68;2.92;;;6.70;99.90;;;;;;5109579;28;20134;-72
2022/01/15 08:35:24;;;;;;;7.70;2.80;;;6.70;99.90;;;;;;5065720;28;20044;-71
2022/01/15 08:37:50;;;;;;;5.30;1.98;;;6.70;99.90;;;;;;5078746;27;20545;-72
2022/01/15 08:40:19;;;;;;;6.38;2.72;;;6.70;99.90;;;;;;5114362;27;20051;-71
2022/01/15 08:42:45;;;;;;;6.65;3.10;;;6.70;99.90;;;;;;5127130;27;20039;-71
2022/01/15 08:45:12;;;;;;;7.57;3.33;;;6.80;99.90;;;;;;5114751;27;20402;-71
2022/01/15 08:47:38;;;;;;;8.65;4.10;;;6.70;99.90;;;;;;5115963;27;20035;-71
2022/01/15 08:50:04;;;;;;;8.15;3.80;;;6.60;99.90;;;;;;5132411;27;20427;-71
2022/01/15 08:52:30;;;;;;;8.43;3.58;;;6.60;99.90;;;;;;5112676;28;20039;-71
2022/01/15 08:54:55;;;;;;;8.73;3.97;;;6.50;99.90;;;;;;5130477;27;20041;-71
2022/01/15 08:57:21;;;;;;;9.30;4.45;;;6.60;99.90;;;;;;5133349;27;20103;-71
2022/01/15 08:59:46;;;;;;;11.07;5.30;;;6.50;99.90;;;;;;5132281;27;20509;-72
2022/01/15 09:02:12;;;;;;;9.60;4.63;;;6.60;99.90;;;;;;5116116;28;20042;-70
2022/01/15 09:04:38;;;;;;;8.27;3.67;;;6.70;99.90;;;;;;5113423;28;20035;-71
2022/01/15 09:07:04;;;;;;;9.10;4.88;;;6.80;99.90;;;;;;5129329;28;20510;-69
2022/01/15 09:09:29;;;;;;;11.00;4.50;;;7.00;99.90;;;;;;5104164;28;20057;-72
2022/01/15 09:11:55;;;;;;;10.30;5.13;;;7.00;99.90;;;;;;5120293;28;20034;-72
2022/01/15 09:14:20;;;;;;;9.43;4.72;;;6.90;99.90;;;;;;5111616;28;20505;-72
2022/01/15 09:16:46;;;;;;;10.77;4.88;;;7.00;99.90;;;;;;5129270;28;20039;-72
2022/01/15 09:19:11;;;;;;;11.65;5.68;;;7.10;99.90;;;;;;5118606;28;20483;-72
2022/01/15 09:21:37;;;;;;;12.65;6.18;;;7.20;99.90;;;;;;5116961;28;20062;-72
2022/01/15 09:24:03;;;;;;;12.75;6.78;;;7.30;99.90;;;;;;5115625;28;20246;-72
2022/01/15 09:31:59;;;;;;;13.25;6.65;;;7.50;99.90;;;;;;5120713;27;20047;-72
2022/01/15 09:34:25;;;;;;;12.57;6.15;;;7.50;99.90;;;;;;5102796;27;20134;-71
2022/01/15 09:36:51;;;;;;;10.57;4.97;;;7.40;99.90;;;;;;5100051;27;20063;-71
2022/01/15 09:39:19;;;;;;;9.40;4.57;;;7.40;99.90;;;;;;5119380;27;20094;-71
2022/01/15 09:41:47;;;;;;;9.23;4.60;;;7.30;99.90;;;;;;5102511;27;20042;-71
2022/01/15 09:44:15;;;;;;;10.40;5.90;;;7.40;99.90;;;;;;5102340;27;20084;-71
2022/01/15 09:46:40;;;;;;;11.60;4.95;;;7.30;99.90;;;;;;5122142;27;20039;-71
2022/01/15 09:49:09;;;;;;;11.50;5.78;;;7.40;99.90;;;;;;5136814;27;20042;-72
2022/01/15 09:51:34;;;;;;;11.95;5.88;;;7.10;99.90;;;;;;5127748;27;20035;-72
2022/01/15 09:54:00;;;;;;;10.43;5.22;;;7.10;99.90;;;;;;5104903;27;20061;-71
2022/01/15 09:56:25;;;;;;;10.25;4.95;;;7.10;99.90;;;;;;5119434;27;20034;-72
2022/01/15 09:58:53;;;;;;;12.05;5.70;;;7.10;99.90;;;;;;5119264;27;20035;-72
2022/01/15 10:01:20;;;;;;;11.27;5.55;;;7.20;99.90;;;;;;5105310;27;20039;-72
2022/01/15 10:03:46;;;;;;;10.30;4.95;;;7.40;99.90;;;;;;5101125;27;20035;-71
2022/01/15 10:06:11;;;;;;;11.30;6.43;;;7.30;99.90;;;;;;5101899;27;20027;-72
2022/01/15 10:08:37;;;;;;;10.32;5.47;;;7.30;99.90;;;;;;5100736;27;20566;-71
2022/01/15 10:11:11;;;;;;;9.93;4.90;;;7.10;99.90;;;;;;5115620;27;20084;-71
2022/01/15 10:13:44;;;;;;;11.18;4.57;;;7.30;99.90;;;;;;5108165;27;20042;-72
2022/01/15 10:16:17;;;;;;;10.60;5.57;;;7.30;99.90;;;;;;5117080;27;20047;-72
2022/01/15 10:18:45;;;;;;;10.85;5.65;;;7.20;99.90;;;;;;5116978;27;20054;-71
2022/01/15 10:21:12;;;;;;;11.95;5.82;;;7.20;99.90;;;;;;5117415;27;20070;-72
2022/01/15 10:23:52;;;;;;;11.88;5.75;;;7.00;99.90;;;;;;5116221;27;20039;-72
2022/01/15 10:26:27;;;;;;;11.07;5.65;;;6.90;99.90;;;;;;5117421;27;20444;-72
2022/01/15 10:29:02;;;;;;;11.40;5.90;;;7.00;99.90;;;;;;5116754;27;20039;-71
2022/01/15 10:31:37;;;;;;;12.38;6.32;;;6.80;99.90;;;;;;5117301;27;20399;-72
2022/01/15 10:34:33;;;;;;;13.52;6.60;;;6.70;99.90;;;;;;5114629;27;20043;-71
2022/01/15 10:37:13;;;;;;;10.85;4.80;;;6.70;99.90;;;;;;5117517;27;20039;-71
2022/01/15 10:39:58;;;;;;;13.18;6.97;;;7.00;99.90;;;;;;5114302;27;20059;-71
2022/01/15 10:42:25;;;;;;;14.57;7.93;;;7.00;99.90;;;;;;5113094;27;20075;-71
2022/01/15 10:44:52;;;;;;;13.15;7.13;;;6.90;99.90;;;;;;5114051;27;20118;-72
2022/01/15 10:47:20;;;;;;;15.18;8.20;;;6.80;99.90;;;;;;5097940;27;20066;-71
2022/01/15 10:49:45;;;;;;;12.20;5.82;;;6.80;99.90;;;;;;5098808;27;20039;-71
2022/01/15 10:52:23;;;;;;;12.45;7.03;;;7.00;99.90;;;;;;5097200;27;20041;-72
2022/01/15 10:55:00;;;;;;;9.60;4.63;;;7.10;99.90;;;;;;5114127;27;20129;-71
2022/01/15 10:57:45;;;;;;;12.38;6.03;;;7.10;99.90;;;;;;5100721;27;20035;-71
2022/01/15 11:00:17;;;;;;;11.60;5.40;;;7.20;99.90;;;;;;5109263;28;20035;-72
2022/01/15 11:02:46;;;;;;;13.13;6.97;;;7.10;99.90;;;;;;5098265;27;20122;-72
2022/01/15 11:05:32;;;;;;;14.15;6.80;;;7.00;99.90;;;;;;5099785;27;20039;-72
2022/01/15 11:08:17;;;;;;;15.30;7.60;;;6.90;99.90;;;;;;5099003;27;20041;-71
2022/01/15 11:10:44;;;;;;;10.15;5.15;;;6.90;99.90;;;;;;5094524;27;20047;-71
2022/01/15 11:13:12;;;;;;;14.73;7.47;;;6.80;99.90;;;;;;5133557;27;20039;-71
2022/01/15 11:15:39;;;;;;;7.53;3.58;;;6.80;99.90;;;;;;5118751;27;20501;-71
2022/01/15 11:18:05;;;;;;;10.50;5.53;;;6.90;99.90;;;;;;5112005;27;20114;-72
2022/01/15 11:20:32;;;;;;;12.02;6.88;;;6.90;99.90;;;;;;5113927;27;20150;-72
2022/01/15 11:23:00;;;;;;;12.82;6.72;;;6.80;99.90;;;;;;5116786;27;20092;-71
2022/01/15 11:25:27;;;;;;;14.75;7.72;;;6.60;99.90;;;;;;5097257;27;20035;-71
2022/01/15 11:27:53;;;;;;;14.45;7.60;;;6.50;99.90;;;;;;5098194;27;20399;-72
2022/01/15 11:30:20;;;;;;;13.88;7.20;;;6.50;99.90;;;;;;5114744;27;20027;-72
2022/01/15 11:32:45;;;;;;;11.48;6.60;;;6.90;99.90;;;;;;5087714;27;20046;-71
2022/01/15 11:35:11;;;;;;;12.88;6.32;;;7.00;99.90;;;;;;5098129;27;20424;-71
2022/01/15 11:37:49;;;;;;;12.05;6.82;;;6.90;99.90;;;;;;5103630;27;20038;-71
2022/01/15 11:40:43;;;;;;;9.05;4.93;;;6.90;99.90;;;;;;5095606;27;20126;-72
2022/01/15 11:43:24;;;;;;;12.38;6.88;;;7.00;99.90;;;;;;5115876;27;20127;-72
2022/01/15 11:46:03;;;;;;;12.70;7.70;;;6.70;99.90;;;;;;5112209;27;20039;-71
2022/01/15 11:48:33;;;;;;;14.35;8.70;;;6.60;99.90;;;;;;5115916;27;20118;-72
2022/01/15 11:51:14;;;;;;;13.65;8.10;;;6.50;99.90;;;;;;5097154;27;20399;-71
2022/01/15 11:53:59;;;;;;;14.77;8.85;;;6.50;99.90;;;;;;5095052;28;20074;-71
2022/01/15 11:56:36;;;;;;;14.60;8.60;;;6.60;99.90;;;;;;5113356;27;20114;-71
2022/01/15 11:59:27;;;;;;;13.88;8.20;;;6.50;99.90;;;;;;5099921;27;20490;-72
2022/01/15 12:02:02;;;;;;;11.85;5.40;;;6.50;99.90;;;;;;5115506;27;20503;-71
2022/01/15 12:04:29;;;;;;;15.27;9.27;;;6.50;99.90;;;;;;5108289;27;20031;-71
2022/01/15 12:07:01;;;;;;;17.20;10.02;;;6.60;99.90;;;;;;5115790;27;20080;-71
2022/01/15 12:09:40;;;;;;;15.75;9.43;;;6.50;99.90;;;;;;5104599;28;20039;-71
2022/01/15 12:12:26;;;;;;;15.80;8.38;;;6.60;99.90;;;;;;5094751;27;20047;-71
2022/01/15 12:14:57;;;;;;;16.40;10.52;;;6.70;99.90;;;;;;5095692;28;20476;-71
2022/01/15 12:17:35;;;;;;;16.50;9.52;;;6.70;99.90;;;;;;5078501;27;20044;-72
2022/01/15 12:20:26;;;;;;;17.40;10.40;;;6.70;99.90;;;;;;5097587;27;20070;-72
2022/01/15 12:23:04;;;;;;;20.45;10.70;;;6.50;99.90;;;;;;5103520;27;20092;-72
2022/01/15 12:25:34;;;;;;;16.73;9.70;;;6.40;99.90;;;;;;5111631;27;20049;-71
2022/01/15 12:28:07;;;;;;;19.73;11.68;;;6.50;99.90;;;;;;5098264;27;20034;-72
2022/01/15 12:30:40;;;;;;;19.35;10.50;;;6.40;99.90;;;;;;5113318;27;20039;-71
2022/01/15 12:33:08;;;;;;;18.10;10.68;;;6.50;99.90;;;;;;5098750;27;20066;-71
2022/01/15 12:35:36;;;;;;;19.75;11.52;;;6.40;99.90;;;;;;5112873;27;20047;-71
2022/01/15 12:38:11;;;;;;;18.65;10.82;;;6.50;99.90;;;;;;5098050;27;20396;-71
2022/01/15 12:40:41;;;;;;;19.45;11.98;;;6.40;99.90;;;;;;5097049;27;20051;-71
2022/01/15 12:43:10;;;;;;;19.23;10.88;;;6.40;99.90;;;;;;5098074;27;20031;-72
2022/01/15 12:45:38;;;;;;;21.30;12.00;;;6.40;99.90;;;;;;5113061;27;20131;-71
2022/01/15 12:48:04;;;;;;;21.20;12.35;;;6.30;99.90;;;;;;5112748;28;20122;-71
2022/01/15 12:50:42;;;;;;;21.85;12.35;;;6.30;99.90;;;;;;5113550;27;20042;-71
2022/01/15 12:53:07;;;;;;;21.40;11.60;;;6.20;99.90;;;;;;5113852;28;20035;-71
2022/01/15 12:55:36;;;;;;;20.73;12.27;;;6.30;99.90;;;;;;5121054;27;20064;-71
2022/01/15 12:58:09;;;;;;;21.23;12.82;;;6.30;99.90;;;;;;5114565;27;20035;-72
2022/01/15 13:00:38;;;;;;;20.42;11.80;;;6.30;99.90;;;;;;5096621;28;20113;-71
2022/01/15 13:03:09;;;;;;;20.67;13.00;;;6.30;99.90;;;;;;5121353;27;20134;-72
2022/01/15 13:05:41;;;;;;;22.00;11.90;;;6.30;99.90;;;;;;5110555;28;20034;-72
2022/01/15 13:08:13;;;;;;;21.08;13.00;;;6.20;99.90;;;;;;5097031;28;20035;-71
2022/01/15 13:13:32;;;;;;;19.13;11.20;;;6.30;99.90;;;;;;5114406;28;20051;-72
2022/01/15 13:16:12;;;;;;;17.42;10.43;;;6.50;99.90;;;;;;5113808;28;20047;-72
2022/01/15 13:18:45;;;;;;;15.50;7.88;;;6.60;99.90;;;;;;5114487;28;20081;-72
2022/01/15 13:21:16;;;;;;;17.65;10.23;;;6.50;99.90;;;;;;5112208;28;20073;-72
2022/01/15 13:23:44;;;;;;;18.25;9.65;;;6.50;99.90;;;;;;5096642;28;20040;-72